Time;durP1;ratioP1;P1;durP2;ratioP2;P2;SDS_P1;SDS_P2;PMS_P1;PMS_P2;Temp;Humidity;BMP_temperature;BMP_pressure;BME280_temperature;BME280_humidity;BME280_pressure;Samples;Min_cycle;Max_cycle;Signal;HPM_P1;HPM_P2
2023/04/27 00:01:40;;;;;;;7.50;3.05;;;10.90;99.90;;;10.08;100.00;101229.56;4134508;28;20022;-75
2023/04/27 00:03:42;;;;;;;6.28;2.78;;;10.90;99.90;;;10.14;100.00;101234.31;4134363;28;20108;-75
2023/04/27 00:05:42;;;;;;;5.00;2.85;;;11.00;99.90;;;10.26;100.00;101250.81;4150689;28;20041;-75
2023/04/27 00:07:43;;;;;;;5.25;2.90;;;11.00;99.90;;;10.20;100.00;101227.63;4135455;28;20082;-75
2023/04/27 00:09:44;;;;;;;4.47;3.03;;;11.10;99.90;;;10.35;100.00;101255.22;4135603;28;20030;-75
2023/04/27 00:11:45;;;;;;;7.55;3.35;;;11.10;99.90;;;10.40;100.00;101250.34;4134396;28;20409;-75
2023/04/27 00:13:47;;;;;;;8.60;2.80;;;11.20;99.90;;;10.43;100.00;101250.91;4133756;28;20022;-75
2023/04/27 00:15:48;;;;;;;5.63;3.40;;;11.20;99.90;;;10.39;100.00;101235.53;4134329;28;20026;-75
2023/04/27 00:17:49;;;;;;;7.53;3.13;;;11.20;99.90;;;10.43;100.00;101239.50;4128874;28;20041;-75
2023/04/27 00:19:51;;;;;;;7.78;3.30;;;11.30;99.90;;;10.47;100.00;101235.63;4137432;28;20022;-75
2023/04/27 00:21:51;;;;;;;5.43;2.88;;;11.30;99.90;;;10.51;100.00;101240.47;4137297;28;20417;-75
2023/04/27 00:23:53;;;;;;;4.20;2.25;;;11.30;99.90;;;10.50;100.00;101236.19;4153536;28;20030;-75
2023/04/27 00:25:54;;;;;;;4.28;2.65;;;11.30;99.90;;;10.56;100.00;101247.97;4138399;28;20038;-75
2023/04/27 00:27:55;;;;;;;5.45;2.00;;;11.30;99.90;;;10.57;100.00;101248.78;4153225;28;20117;-75
2023/04/27 00:29:56;;;;;;;6.93;3.33;;;11.30;99.90;;;10.52;100.00;101244.78;4124459;28;20027;-75
2023/04/27 00:31:57;;;;;;;5.97;3.33;;;11.30;99.90;;;10.46;100.00;101240.06;4125149;28;20121;-75
2023/04/27 00:33:58;;;;;;;6.60;3.58;;;11.20;99.90;;;10.39;100.00;101240.78;4128373;28;20077;-75
2023/04/27 00:36:00;;;;;;;9.82;3.42;;;11.20;99.90;;;10.32;100.00;101245.81;4133622;28;20037;-75
2023/04/27 00:38:01;;;;;;;8.75;2.75;;;11.10;99.90;;;10.14;100.00;101229.03;4137943;28;20018;-75
2023/04/27 00:40:08;;;;;;;4.43;2.20;;;11.00;99.90;;;10.08;100.00;101218.19;4137196;28;20500;-75
2023/04/27 00:42:12;;;;;;;5.63;2.67;;;11.00;99.90;;;10.06;100.00;101226.25;4138084;28;20373;-75
2023/04/27 00:44:21;;;;;;;5.07;2.42;;;10.90;99.90;;;10.02;100.00;101224.88;4124981;28;20031;-74
2023/04/27 00:46:23;;;;;;;6.32;2.80;;;10.90;99.90;;;10.07;100.00;101242.88;4113501;28;20077;-75
2023/04/27 00:48:24;;;;;;;6.80;3.08;;;10.80;99.90;;;10.03;100.00;101244.97;4128427;28;20034;-74
2023/04/27 00:50:28;;;;;;;5.80;2.95;;;10.80;99.90;;;10.06;100.00;101252.63;4153065;28;20022;-75
2023/04/27 00:52:30;;;;;;;6.60;2.38;;;10.80;99.90;;;10.07;100.00;101241.06;4152780;28;20033;-75
2023/04/27 00:54:31;;;;;;;5.18;2.85;;;10.80;99.90;;;10.03;100.00;101221.25;4136660;28;20065;-75
2023/04/27 00:56:32;;;;;;;5.43;2.72;;;10.90;99.90;;;10.09;100.00;101230.41;4138245;28;20034;-75
2023/04/27 00:58:33;;;;;;;4.18;2.63;;;10.90;99.90;;;10.02;100.00;101220.44;4136786;28;20522;-75
2023/04/27 01:00:39;;;;;;;5.55;3.05;;;10.90;99.90;;;10.05;100.00;101224.59;4150859;28;20081;-75
2023/04/27 01:02:41;;;;;;;6.15;3.10;;;10.90;99.90;;;10.08;100.00;101234.00;4136746;28;20205;-75
2023/04/27 01:04:42;;;;;;;6.65;3.30;;;10.90;99.90;;;9.98;100.00;101229.56;4129929;28;20022;-74
2023/04/27 01:06:43;;;;;;;5.78;3.03;;;10.80;99.90;;;9.90;100.00;101229.44;4136489;28;20506;-75
2023/04/27 01:08:45;;;;;;;5.80;2.97;;;10.70;99.90;;;9.67;100.00;101209.63;4136223;28;20037;-75
2023/04/27 01:10:48;;;;;;;6.68;3.08;;;10.60;99.90;;;9.60;100.00;101207.69;4126546;28;20053;-75
2023/04/27 01:12:49;;;;;;;8.07;3.05;;;10.50;99.90;;;9.62;100.00;101222.38;4136584;28;20070;-75
2023/04/27 01:14:50;;;;;;;7.05;3.60;;;10.40;99.90;;;9.42;100.00;101202.25;4115838;28;20034;-75
2023/04/27 01:16:51;;;;;;;6.93;3.00;;;10.30;99.90;;;9.38;100.00;101206.97;4136129;28;20081;-75
2023/04/27 01:18:52;;;;;;;5.20;2.72;;;10.20;99.90;;;9.40;100.00;101215.59;4131703;28;20101;-75
2023/04/27 01:20:53;;;;;;;9.45;2.70;;;10.20;99.90;;;9.32;100.00;101198.78;4129451;28;20437;-75
2023/04/27 01:22:55;;;;;;;6.45;2.92;;;10.20;99.90;;;9.29;100.00;101193.78;4137497;28;20042;-75
2023/04/27 01:24:56;;;;;;;5.35;3.15;;;10.10;99.90;;;9.27;100.00;101191.31;4136205;28;20042;-75
2023/04/27 01:26:57;;;;;;;4.40;2.65;;;10.10;99.90;;;9.27;100.00;101201.00;4125888;28;20161;-75
2023/04/27 01:28:58;;;;;;;4.70;2.38;;;10.10;99.90;;;9.32;100.00;101209.31;4119382;28;20078;-75
2023/04/27 01:30:59;;;;;;;6.03;2.60;;;10.10;99.90;;;9.19;100.00;101187.69;4130977;28;20514;-75
2023/04/27 01:33:00;;;;;;;4.05;2.65;;;10.10;99.90;;;9.21;100.00;101198.91;4152342;28;20045;-75
2023/04/27 01:35:01;;;;;;;5.38;2.53;;;10.00;99.90;;;9.25;100.00;101205.56;4137503;28;20022;-75
2023/04/27 01:37:01;;;;;;;7.22;3.03;;;10.00;99.90;;;9.22;100.00;101208.47;4137284;28;20046;-75
2023/04/27 01:39:03;;;;;;;6.00;2.53;;;10.00;99.90;;;9.18;100.00;101201.81;4136245;28;20474;-75
2023/04/27 01:41:06;;;;;;;4.22;2.55;;;10.00;99.90;;;9.20;100.00;101205.16;4133160;28;20023;-74
2023/04/27 01:43:06;;;;;;;3.35;2.38;;;10.00;99.90;;;9.09;100.00;101194.72;4132625;28;20029;-75
2023/04/27 01:45:09;;;;;;;5.65;2.90;;;10.00;99.90;;;9.13;100.00;101206.66;4136758;28;20506;-75
2023/04/27 01:47:10;;;;;;;5.50;2.70;;;10.00;99.90;;;9.07;100.00;101194.03;4136050;28;20018;-75
2023/04/27 01:49:11;;;;;;;7.68;2.47;;;9.90;99.90;;;9.04;100.00;101189.88;4132950;28;20056;-75
2023/04/27 01:51:12;;;;;;;6.38;2.35;;;9.90;99.90;;;9.11;100.00;101201.50;4135933;28;20030;-75
2023/04/27 01:53:12;;;;;;;4.00;2.40;;;9.90;99.90;;;9.01;100.00;101189.31;4126326;28;20066;-75
2023/04/27 01:55:13;;;;;;;4.57;2.70;;;9.80;99.90;;;8.93;100.00;101170.75;4129122;28;20038;-75
2023/04/27 01:57:14;;;;;;;4.57;2.65;;;9.80;99.90;;;9.07;100.00;101199.31;4135918;28;20081;-75
2023/04/27 01:59:15;;;;;;;3.90;2.22;;;9.80;99.90;;;9.05;100.00;101193.34;4135764;28;20014;-75
2023/04/27 02:01:16;;;;;;;6.43;2.72;;;9.80;99.90;;;8.98;100.00;101177.28;4135921;28;20105;-75
2023/04/27 02:03:17;;;;;;;4.70;2.53;;;9.80;99.90;;;9.06;100.00;101197.63;4135681;28;20029;-75
2023/04/27 02:05:19;;;;;;;5.05;2.28;;;9.80;99.90;;;8.93;100.00;101170.75;4119512;28;20406;-75
2023/04/27 02:07:20;;;;;;;7.72;2.78;;;9.80;99.90;;;9.00;100.00;101185.00;4118621;28;20027;-75
2023/04/27 02:09:21;;;;;;;5.40;2.28;;;9.80;99.90;;;8.97;100.00;101180.03;4126534;28;20026;-74
2023/04/27 02:11:22;;;;;;;7.00;2.40;;;9.80;99.90;;;9.00;100.00;101188.47;4135860;28;20093;-75
2023/04/27 02:13:22;;;;;;;3.80;2.08;;;9.80;99.90;;;8.98;100.00;101181.69;4131905;28;20030;-75
2023/04/27 02:15:26;;;;;;;5.50;2.97;;;9.70;99.90;;;8.96;100.00;101176.56;4135476;28;20025;-75
2023/04/27 02:17:28;;;;;;;3.50;2.03;;;9.70;99.90;;;8.97;100.00;101172.13;4119964;28;20077;-74
2023/04/27 02:19:29;;;;;;;3.60;2.25;;;9.70;99.90;;;8.85;100.00;101153.00;4135500;28;20482;-74
2023/04/27 02:21:30;;;;;;;4.72;2.20;;;9.70;99.90;;;8.81;100.00;101156.88;4131549;28;20022;-75
2023/04/27 02:23:31;;;;;;;5.80;2.25;;;9.70;99.90;;;8.77;100.00;101145.78;4135216;28;20053;-75
2023/04/27 02:25:32;;;;;;;5.75;2.95;;;9.70;99.90;;;8.87;100.00;101167.66;4135378;28;20053;-75
2023/04/27 02:27:32;;;;;;;5.07;2.40;;;9.70;99.90;;;8.78;100.00;101157.16;4135303;28;20050;-75
2023/04/27 02:29:37;;;;;;;5.00;2.35;;;9.70;99.90;;;8.83;100.00;101171.56;4115241;28;20065;-75
2023/04/27 02:31:38;;;;;;;3.85;2.35;;;9.60;99.90;;;8.82;100.00;101171.69;4135240;28;20077;-75
2023/04/27 02:33:40;;;;;;;4.43;2.17;;;9.60;99.90;;;8.75;100.00;101165.31;4136548;28;20022;-75
2023/04/27 02:35:41;;;;;;;3.75;1.85;;;9.50;99.90;;;8.79;100.00;101175.41;4135083;28;20545;-75
2023/04/27 02:37:42;;;;;;;3.45;2.15;;;9.50;99.90;;;8.68;100.00;101162.38;4136339;28;20049;-75
2023/04/27 02:39:42;;;;;;;4.35;2.17;;;9.50;99.90;;;8.75;100.00;101179.25;4136125;28;20525;-74
2023/04/27 02:41:43;;;;;;;4.63;2.50;;;9.50;99.90;;;8.58;100.00;101150.97;4135118;28;20026;-75
2023/04/27 02:43:45;;;;;;;4.80;2.30;;;9.50;99.90;;;8.60;100.00;101150.88;4127418;28;20482;-75
2023/04/27 02:45:46;;;;;;;3.25;2.13;;;9.50;99.90;;;8.74;100.00;101177.63;4130560;28;20068;-75
2023/04/27 02:47:49;;;;;;;4.18;1.98;;;9.50;99.90;;;8.73;100.00;101175.09;4151189;28;20067;-74
2023/04/27 02:49:50;;;;;;;5.75;2.30;;;9.50;99.90;;;8.69;100.00;101177.16;4124521;28;20100;-74
2023/04/27 02:51:51;;;;;;;3.78;2.33;;;9.50;99.90;;;8.73;100.00;101185.63;4136224;28;20430;-75
2023/04/27 02:53:53;;;;;;;3.33;2.10;;;9.50;99.90;;;8.72;100.00;101184.78;4118655;28;20450;-75
2023/04/27 02:55:54;;;;;;;4.53;2.40;;;9.50;99.90;;;8.71;100.00;101177.88;4135239;28;20046;-75
2023/04/27 02:57:55;;;;;;;3.38;2.17;;;9.50;99.90;;;8.74;100.00;101187.31;4136186;28;20061;-75
2023/04/27 02:59:56;;;;;;;6.03;2.40;;;9.50;99.90;;;8.74;100.00;101190.78;4136253;28;20023;-75
2023/04/27 03:01:57;;;;;;;3.97;2.47;;;9.50;99.90;;;8.72;100.00;101189.25;4135188;28;20026;-75
2023/04/27 03:03:57;;;;;;;4.80;2.13;;;9.50;99.90;;;8.71;100.00;101188.41;4136002;28;20561;-74
2023/04/27 03:05:58;;;;;;;5.47;2.47;;;9.50;99.90;;;8.60;100.00;101172.69;4151397;28;20022;-74
2023/04/27 03:07:59;;;;;;;3.85;2.33;;;9.40;99.90;;;8.64;100.00;101171.47;4118576;28;20522;-74
2023/04/27 03:10:00;;;;;;;5.78;2.15;;;9.40;99.90;;;8.69;100.00;101185.06;4129360;28;20026;-75
2023/04/27 03:12:01;;;;;;;3.58;2.10;;;9.50;99.90;;;8.62;100.00;101180.47;4118558;28;20030;-75
2023/04/27 03:14:03;;;;;;;6.85;3.00;;;9.50;99.90;;;8.56;100.00;101160.81;4136124;28;20392;-75
2023/04/27 03:16:05;;;;;;;6.22;2.60;;;9.40;99.90;;;8.57;100.00;101166.91;4151080;28;20172;-75
2023/04/27 03:18:06;;;;;;;5.28;2.75;;;9.40;99.90;;;8.65;100.00;101181.06;4134786;28;20015;-75
2023/04/27 03:20:08;;;;;;;3.97;2.33;;;9.40;99.90;;;8.62;100.00;101162.91;4134896;28;20029;-75
2023/04/27 03:22:09;;;;;;;5.53;2.20;;;9.50;99.90;;;8.67;100.00;101162.50;4135840;28;20019;-75
2023/04/27 03:24:10;;;;;;;4.30;2.05;;;9.50;99.90;;;8.73;100.00;101154.91;4134838;28;20035;-75
2023/04/27 03:26:13;;;;;;;3.67;2.22;;;9.60;99.90;;;8.85;100.00;101166.97;4128463;28;20049;-75
2023/04/27 03:28:14;;;;;;;5.15;2.22;;;9.70;99.90;;;8.96;100.00;101166.03;4134823;28;20035;-75
2023/04/27 03:30:15;;;;;;;4.35;2.45;;;9.70;99.90;;;9.02;100.00;101172.56;4123132;28;20035;-75
2023/04/27 03:32:16;;;;;;;4.80;2.55;;;9.70;99.90;;;9.05;100.00;101175.75;4134752;28;20038;-75
2023/04/27 03:34:16;;;;;;;5.13;2.30;;;9.80;99.90;;;8.99;100.00;101157.88;4128238;28;20037;-74
2023/04/27 03:36:17;;;;;;;3.97;2.08;;;9.80;99.90;;;8.96;100.00;101141.53;4133684;28;20474;-75
2023/04/27 03:38:18;;;;;;;5.30;2.38;;;9.90;99.90;;;9.09;100.00;101165.78;4135730;28;20023;-75
2023/04/27 03:40:19;;;;;;;4.13;2.25;;;9.90;99.90;;;9.13;100.00;101156.66;4134733;28;20469;-75
2023/04/27 03:42:21;;;;;;;3.97;2.42;;;9.90;99.90;;;9.15;100.00;101154.72;4118377;28;20058;-75
2023/04/27 03:44:21;;;;;;;5.15;2.75;;;9.90;99.90;;;9.05;100.00;101132.84;4134254;28;20029;-75
2023/04/27 03:46:22;;;;;;;7.63;3.40;;;9.90;99.90;;;9.16;100.00;101135.31;4106690;28;20027;-75
2023/04/27 03:48:23;;;;;;;4.93;2.63;;;9.90;99.90;;;9.16;100.00;101136.16;4118341;28;20038;-74
2023/04/27 03:50:24;;;;;;;5.18;2.53;;;9.90;99.90;;;8.99;100.00;101117.59;4129408;28;20061;-75
2023/04/27 03:52:25;;;;;;;4.97;2.72;;;9.90;99.90;;;9.07;100.00;101130.88;4121649;28;20023;-74
2023/04/27 03:54:26;;;;;;;4.68;2.60;;;9.80;99.90;;;8.94;100.00;101109.25;4121466;28;20033;-75
2023/04/27 03:56:28;;;;;;;6.43;2.78;;;9.80;99.90;;;8.98;100.00;101122.00;4137496;28;20050;-75
2023/04/27 03:58:29;;;;;;;4.13;2.70;;;9.80;99.90;;;8.96;100.00;101128.38;4127767;28;20023;-75
2023/04/27 04:00:30;;;;;;;7.57;2.90;;;9.80;99.90;;;8.89;100.00;101128.09;4122381;28;20390;-75
2023/04/27 04:02:32;;;;;;;7.72;2.47;;;9.70;99.90;;;8.87;100.00;101130.00;4126291;28;20030;-75
2023/04/27 04:04:32;;;;;;;8.18;3.10;;;9.70;99.90;;;8.80;100.00;101119.22;4113201;28;20031;-75
2023/04/27 04:06:33;;;;;;;6.05;3.40;;;9.70;99.90;;;8.75;100.00;101108.25;4137503;28;20061;-74
2023/04/27 04:08:34;;;;;;;5.70;3.20;;;9.70;99.90;;;8.85;100.00;101135.41;4135170;28;20038;-75
2023/04/27 04:10:35;;;;;;;5.97;2.95;;;9.70;99.90;;;8.88;100.00;101115.91;4138823;28;20404;-75
2023/04/27 04:12:36;;;;;;;5.97;2.88;;;9.80;99.90;;;8.98;100.00;101110.66;4138705;28;20026;-75
2023/04/27 04:14:37;;;;;;;5.47;2.70;;;9.80;99.90;;;9.07;100.00;101105.41;4137238;28;20026;-75
2023/04/27 04:16:38;;;;;;;7.40;3.08;;;9.90;99.90;;;9.12;100.00;101104.97;4134729;28;20037;-74
2023/04/27 04:18:39;;;;;;;4.07;2.75;;;9.90;99.90;;;9.09;100.00;101092.94;4126091;28;20474;-75
2023/04/27 04:20:40;;;;;;;5.28;2.25;;;9.90;99.90;;;9.17;100.00;101092.25;4137652;28;20026;-75
2023/04/27 04:22:42;;;;;;;4.85;2.67;;;9.90;99.90;;;9.19;100.00;101079.78;4131162;28;20061;-74
2023/04/27 04:24:43;;;;;;;3.83;2.60;;;10.00;99.90;;;9.23;100.00;101083.78;4134657;28;20030;-74
2023/04/27 04:26:43;;;;;;;3.85;2.22;;;10.00;99.90;;;9.22;100.00;101085.59;4137344;28;20565;-74
2023/04/27 04:28:44;;;;;;;5.72;3.10;;;10.00;99.90;;;9.24;100.00;101074.94;4137050;28;20038;-74
2023/04/27 04:30:45;;;;;;;6.43;2.97;;;10.10;99.90;;;9.29;100.00;101078.78;4138561;28;20022;-74
2023/04/27 04:32:46;;;;;;;5.55;3.38;;;10.10;99.90;;;9.37;100.00;101091.28;4138316;28;20059;-74
2023/04/27 04:34:51;;;;;;;9.25;3.22;;;10.10;99.90;;;9.30;100.00;101062.03;4137268;28;20410;-74
2023/04/27 04:36:53;;;;;;;4.43;2.63;;;10.20;99.90;;;9.35;100.00;101057.19;4138092;28;20026;-74
2023/04/27 04:38:54;;;;;;;6.05;3.28;;;10.20;99.90;;;9.48;100.00;101077.97;4138473;28;20153;-75
2023/04/27 04:40:54;;;;;;;6.97;3.92;;;10.20;99.90;;;9.54;100.00;101076.56;4138515;28;20030;-75
2023/04/27 04:42:55;;;;;;;5.80;2.97;;;10.30;99.90;;;9.47;100.00;101044.69;4136838;28;20022;-75
2023/04/27 04:44:57;;;;;;;5.85;3.65;;;10.30;99.90;;;9.56;100.00;101051.72;4136879;28;20112;-75
2023/04/27 04:46:58;;;;;;;5.43;3.70;;;10.40;99.90;;;9.52;100.00;101049.53;4137157;28;20045;-75
2023/04/27 04:49:01;;;;;;;7.63;4.47;;;10.40;99.90;;;9.58;100.00;101052.44;4120861;28;20019;-75
2023/04/27 04:51:05;;;;;;;7.57;4.78;;;10.40;99.90;;;9.58;100.00;101039.28;4136833;28;20134;-75
2023/04/27 04:53:07;;;;;;;8.35;4.93;;;10.50;99.90;;;9.61;100.00;101031.09;4152884;28;20494;-75
2023/04/27 04:55:09;;;;;;;8.43;5.32;;;10.50;99.90;;;9.77;100.00;101062.91;4138017;28;20034;-75
2023/04/27 04:57:10;;;;;;;7.28;4.72;;;10.50;99.90;;;9.86;100.00;101067.31;4120548;28;20590;-75
2023/04/27 04:59:11;;;;;;;7.57;4.95;;;10.60;99.90;;;9.75;100.00;101049.06;4136900;28;20044;-75
2023/04/27 05:01:11;;;;;;;8.55;4.70;;;10.60;99.90;;;9.81;100.00;101055.56;4120782;28;20030;-75
2023/04/27 05:03:12;;;;;;;9.20;5.20;;;10.70;99.90;;;9.92;100.00;101071.19;4127298;28;20031;-75
2023/04/27 05:05:13;;;;;;;7.82;4.85;;;10.70;99.90;;;9.88;100.00;101070.66;4120414;28;20519;-75
2023/04/27 05:07:16;;;;;;;7.90;4.88;;;10.70;99.90;;;9.95;100.00;101069.09;4134692;28;20117;-74
2023/04/27 05:09:17;;;;;;;9.00;5.05;;;10.70;99.90;;;9.95;100.00;101066.47;4136700;28;20037;-75
2023/04/27 05:11:18;;;;;;;7.93;5.50;;;10.70;99.90;;;9.97;100.00;101061.06;4137773;28;20553;-74
2023/04/27 05:13:20;;;;;;;6.80;4.80;;;10.80;99.90;;;9.94;100.00;101051.66;4136615;28;20097;-75
2023/04/27 05:15:21;;;;;;;8.07;5.18;;;10.80;99.90;;;9.94;100.00;101041.13;4121692;28;20068;-74
2023/04/27 05:17:22;;;;;;;9.90;5.90;;;10.80;99.90;;;9.96;100.00;101047.06;4121574;28;20077;-74
2023/04/27 05:19:24;;;;;;;9.55;4.85;;;10.80;99.90;;;10.06;100.00;101068.09;4132742;28;20118;-75
2023/04/27 05:21:25;;;;;;;8.88;5.30;;;10.80;99.90;;;10.09;100.00;101066.97;4134815;28;20034;-74
2023/04/27 05:23:26;;;;;;;11.02;5.40;;;10.90;99.90;;;10.11;100.00;101059.75;4131445;28;20018;-74
2023/04/27 05:25:40;;;;;;;9.70;5.35;;;10.90;99.90;;;10.08;100.00;101050.34;4136619;28;20486;-75
2023/04/27 05:27:41;;;;;;;7.75;5.43;;;10.90;99.90;;;10.11;100.00;101046.56;4135819;28;20482;-75
2023/04/27 05:29:42;;;;;;;8.82;4.90;;;10.90;99.90;;;10.20;100.00;101053.63;4132711;28;20026;-75
2023/04/27 05:31:43;;;;;;;8.15;5.38;;;11.00;99.90;;;10.16;100.00;101052.25;4136058;28;20061;-74
2023/04/27 05:33:44;;;;;;;12.38;5.78;;;11.00;99.90;;;10.28;100.00;101066.91;4131165;28;20062;-74
2023/04/27 05:35:45;;;;;;;8.50;5.15;;;11.00;99.90;;;10.28;100.00;101066.91;4129869;28;20124;-75
2023/04/27 05:37:46;;;;;;;7.80;5.00;;;11.00;99.90;;;10.32;100.00;101058.59;4132638;28;20506;-74
2023/04/27 05:39:46;;;;;;;8.07;5.25;;;11.10;99.90;;;10.43;100.00;101070.72;4137235;28;20380;-75
2023/04/27 05:41:47;;;;;;;8.65;5.38;;;11.10;99.90;;;10.48;100.00;101073.78;4137219;28;20030;-74
2023/04/27 05:43:48;;;;;;;6.97;4.70;;;11.20;99.90;;;10.51;100.00;101074.28;4136101;28;20045;-74
2023/04/27 05:45:50;;;;;;;9.65;5.20;;;11.20;99.90;;;10.61;100.00;101078.69;4135947;28;20110;-74
2023/04/27 05:47:50;;;;;;;10.02;4.32;;;11.30;99.90;;;10.65;100.00;101072.13;4136923;28;20046;-74
2023/04/27 05:49:52;;;;;;;9.48;5.10;;;11.40;99.90;;;10.69;100.00;101071.72;4137249;28;20037;-74
2023/04/27 05:51:53;;;;;;;8.82;5.70;;;11.40;99.90;;;10.77;100.00;101079.69;4135754;28;20041;-74
2023/04/27 05:53:54;;;;;;;7.10;4.88;;;11.50;99.90;;;10.81;100.00;101074.97;4123535;28;20447;-74
2023/04/27 05:55:58;;;;;;;8.65;4.93;;;11.50;99.90;;;10.91;100.00;101075.72;4119546;28;20027;-74
2023/04/27 05:58:00;;;;;;;6.38;4.60;;;11.60;99.90;;;10.97;100.00;101075.94;4121043;28;20045;-74
2023/04/27 06:00:07;;;;;;;6.72;4.85;;;11.60;99.90;;;10.99;100.00;101067.88;4128928;28;20037;-74
2023/04/27 06:02:08;;;;;;;7.57;4.93;;;11.70;99.90;;;11.05;100.00;101069.94;4117218;28;20058;-74
2023/04/27 06:04:09;;;;;;;7.75;4.85;;;11.70;99.90;;;11.08;100.00;101059.03;4123091;28;20022;-74
2023/04/27 06:06:10;;;;;;;7.30;4.47;;;11.80;99.90;;;11.12;100.00;101068.31;4151752;28;20030;-74
2023/04/27 06:08:11;;;;;;;7.53;4.20;;;11.80;99.90;;;11.20;100.00;101070.22;4135515;28;20077;-73
2023/04/27 06:10:13;;;;;;;7.13;4.13;;;11.90;99.90;;;11.24;100.00;101079.47;4136882;28;20069;-74
2023/04/27 06:12:14;;;;;;;9.07;4.60;;;11.90;99.90;;;11.26;100.00;101077.53;4136834;28;20030;-72
2023/04/27 06:14:15;;;;;;;8.40;5.70;;;11.90;99.90;;;11.22;100.00;101074.38;4130505;28;20041;-73
2023/04/27 06:16:16;;;;;;;7.43;5.05;;;12.00;99.90;;;11.27;100.00;101076.53;4125433;28;20031;-73
2023/04/27 06:18:17;;;;;;;7.47;5.30;;;12.00;99.90;;;11.35;100.00;101079.25;4131535;28;20029;-73
2023/04/27 06:20:18;;;;;;;9.35;6.13;;;12.00;99.90;;;11.37;100.00;101067.56;4134631;28;20034;-73
2023/04/27 06:22:19;;;;;;;10.35;5.68;;;12.10;99.90;;;11.42;100.00;101073.19;4134096;28;20045;-74
2023/04/27 06:24:21;;;;;;;9.38;5.90;;;12.10;99.90;;;11.53;100.00;101078.22;4118757;28;20031;-74
2023/04/27 06:26:22;;;;;;;6.97;4.70;;;12.20;99.90;;;11.64;100.00;101082.44;4118793;28;20042;-73
2023/04/27 06:28:22;;;;;;;7.90;5.28;;;12.30;99.90;;;11.69;100.00;101077.53;4130511;28;20498;-72
2023/04/27 06:30:24;;;;;;;7.68;4.72;;;12.40;99.90;;;11.70;100.00;101073.94;4136012;28;20030;-72
2023/04/27 06:32:25;;;;;;;9.45;4.93;;;12.40;99.90;;;11.76;100.00;101081.25;4134849;28;20026;-72
2023/04/27 06:34:26;;;;;;;10.35;6.10;;;12.50;99.90;;;11.74;100.00;101075.25;4124561;28;20053;-72
2023/04/27 06:36:27;;;;;;;8.35;5.22;;;12.50;99.90;;;11.75;100.00;101070.81;4133952;28;20022;-72
2023/04/27 06:38:27;;;;;;;6.85;4.85;;;12.50;99.90;;;11.73;100.00;101072.78;4124825;28;20023;-72
2023/04/27 06:40:28;;;;;;;8.07;5.30;;;12.50;99.90;;;11.73;100.00;101073.63;4135519;28;20074;-72
2023/04/27 06:42:29;;;;;;;5.53;4.18;;;12.50;99.90;;;11.72;100.00;101071.97;4130639;28;20029;-73
2023/04/27 06:44:30;;;;;;;9.82;5.32;;;12.50;99.90;;;11.75;100.00;101062.88;4121321;28;20054;-72
2023/04/27 06:46:31;;;;;;;8.18;5.47;;;12.50;99.90;;;11.75;100.00;101070.81;4119320;28;20030;-72
2023/04/27 06:48:32;;;;;;;7.13;4.72;;;12.50;99.90;;;11.76;100.00;101061.91;4120279;28;20034;-72
2023/04/27 06:50:33;;;;;;;8.13;5.03;;;12.50;99.90;;;11.75;100.00;101054.97;4119383;28;20554;-72
2023/04/27 06:52:33;;;;;;;9.48;5.65;;;12.50;99.90;;;11.82;100.00;101070.06;4132813;28;20030;-72
2023/04/27 06:54:35;;;;;;;8.52;5.43;;;12.50;99.90;;;11.85;100.00;101067.09;4134910;28;20564;-72
2023/04/27 06:56:36;;;;;;;7.18;5.18;;;12.60;99.90;;;11.89;100.00;101068.44;4136014;28;20026;-72
2023/04/27 06:58:37;;;;;;;10.27;5.50;;;12.60;99.90;;;11.88;100.00;101064.16;4136196;28;20030;-72
2023/04/27 07:00:38;;;;;;;7.90;4.80;;;12.60;99.90;;;11.84;100.00;101048.75;4135073;28;20037;-72
2023/04/27 07:02:38;;;;;;;7.88;5.60;;;12.70;99.90;;;12.01;100.00;101068.97;4107322;28;20027;-72
2023/04/27 07:04:40;;;;;;;9.48;5.22;;;12.70;99.90;;;12.01;100.00;101071.63;4136304;28;20386;-72
2023/04/27 07:06:41;;;;;;;8.80;5.78;;;12.70;99.90;;;12.01;100.00;101061.06;4136193;28;20034;-72
2023/04/27 07:08:42;;;;;;;8.13;5.40;;;12.70;99.90;;;11.98;100.00;101062.19;4134924;28;20046;-72
2023/04/27 07:10:43;;;;;;;7.32;5.00;;;12.70;99.90;;;12.03;100.00;101065.22;4123996;28;20118;-73
2023/04/27 07:12:44;;;;;;;10.70;5.30;;;12.80;99.90;;;12.08;100.00;101060.28;4134872;28;20023;-72
2023/04/27 07:14:45;;;;;;;6.75;4.72;;;12.80;99.90;;;12.12;100.00;101053.69;4126051;28;20502;-72
2023/04/27 07:16:46;;;;;;;11.02;6.18;;;12.90;99.90;;;12.07;100.00;101058.63;4131875;28;20022;-72
2023/04/27 07:18:47;;;;;;;9.15;5.78;;;12.90;99.90;;;12.04;100.00;101053.63;4131015;28;20570;-72
2023/04/27 07:20:47;;;;;;;9.95;5.63;;;12.80;99.90;;;12.12;100.00;101064.28;4125102;28;20031;-73
2023/04/27 07:22:48;;;;;;;10.05;6.22;;;12.80;99.90;;;12.06;100.00;101048.22;4135719;28;20054;-72
2023/04/27 07:24:50;;;;;;;9.80;5.75;;;12.80;99.90;;;12.08;100.00;101060.28;4122231;28;20443;-72
2023/04/27 07:26:50;;;;;;;9.55;5.90;;;12.90;99.90;;;12.08;100.00;101049.69;4121427;28;20061;-72
2023/04/27 07:28:51;;;;;;;7.43;5.25;;;12.90;99.90;;;12.12;100.00;101058.16;4123314;28;20027;-72
2023/04/27 07:30:52;;;;;;;7.97;5.30;;;12.90;99.90;;;12.12;100.00;101053.69;4131238;28;20536;-72
2023/04/27 07:32:53;;;;;;;10.63;5.78;;;12.90;99.90;;;12.17;100.00;101045.28;4134154;28;20030;-72
2023/04/27 07:34:54;;;;;;;12.02;6.00;;;12.90;99.90;;;12.19;100.00;101049.41;4126754;28;20034;-72
2023/04/27 07:36:55;;;;;;;9.35;6.32;;;13.00;99.90;;;12.18;100.00;101045.09;4139011;28;20029;-72
2023/04/27 07:38:57;;;;;;;7.95;5.82;;;13.00;99.90;;;12.15;100.00;101032.22;4138031;28;20023;-72
2023/04/27 07:41:00;;;;;;;10.77;5.50;;;13.00;99.90;;;12.29;100.00;101059.03;4136022;28;20048;-72
2023/04/27 07:43:01;;;;;;;7.03;5.20;;;13.00;99.90;;;12.29;100.00;101057.22;4137811;28;20018;-72
2023/04/27 07:45:02;;;;;;;6.55;4.57;;;13.10;99.90;;;12.30;100.00;101053.59;4129241;28;20565;-72
2023/04/27 07:47:04;;;;;;;7.50;5.32;;;13.10;99.90;;;12.36;100.00;101054.78;4137739;28;20073;-72
2023/04/27 07:49:04;;;;;;;7.22;4.97;;;13.10;99.90;;;12.35;100.00;101053.13;4134145;28;20026;-72
2023/04/27 07:51:05;;;;;;;8.27;4.30;;;13.10;99.90;;;12.42;100.00;101048.84;4121664;28;20089;-72
2023/04/27 07:53:06;;;;;;;6.80;4.93;;;13.10;99.90;;;12.41;100.00;101049.84;4123595;28;20039;-72
2023/04/27 07:55:08;;;;;;;6.25;4.10;;;13.10;99.90;;;12.47;100.00;101047.38;4121863;28;20031;-72
2023/04/27 07:57:13;;;;;;;6.40;4.32;;;13.20;99.90;;;12.48;100.00;101043.75;4133968;28;20023;-72
2023/04/27 07:59:14;;;;;;;6.53;4.75;;;13.20;99.90;;;12.49;100.00;101042.75;4121690;28;20034;-72
2023/04/27 08:01:15;;;;;;;6.78;4.72;;;13.20;99.90;;;12.55;100.00;101038.63;4121692;28;20514;-72
2023/04/27 08:03:16;;;;;;;6.38;4.38;;;13.30;99.90;;;12.60;100.00;101028.41;4130892;28;20054;-72
2023/04/27 08:05:17;;;;;;;6.45;4.90;;;13.40;99.90;;;12.72;100.00;101043.78;4124930;28;20027;-73
2023/04/27 08:07:18;;;;;;;5.72;4.13;;;13.40;99.90;;;12.82;100.00;101034.88;4121472;28;20097;-72
2023/04/27 08:09:19;;;;;;;6.43;3.90;;;13.50;99.90;;;12.95;100.00;101032.59;4121417;28;20578;-72
2023/04/27 08:11:20;;;;;;;6.85;4.22;;;13.70;99.90;;;13.03;100.00;101032.56;4121579;28;20066;-73
2023/04/27 08:13:21;;;;;;;6.75;4.57;;;13.70;99.90;;;13.11;100.00;101046.69;4133867;28;20434;-72
2023/04/27 08:15:22;;;;;;;5.50;3.90;;;13.80;99.90;;;13.12;100.00;101032.47;4121501;28;20031;-72
2023/04/27 08:17:22;;;;;;;6.22;3.33;;;13.90;99.90;;;13.18;100.00;101031.78;4128083;28;20034;-72
2023/04/27 08:19:23;;;;;;;7.60;4.43;;;13.90;99.90;;;13.26;100.00;101037.09;4137433;28;20435;-72
2023/04/27 08:21:24;;;;;;;6.68;4.45;;;14.00;99.90;;;13.30;100.00;101022.53;4132984;28;20525;-72
2023/04/27 08:23:31;;;;;;;5.75;4.28;;;14.00;99.90;;;13.35;100.00;101018.56;4135110;28;20027;-72